Time,TemperatureF,DewpointF,PressureIn,WindDirection,WindDirectionDegrees,WindSpeedMPH,WindSpeedGustMPH,Humidity,HourlyPrecipIn,Conditions,Clouds,dailyrainin,SolarRadiationWatts/m^2,UVIndex,SoftwareType,DateUTC
2026-09-05 00:04:59,71.6,69.2,29.98,NW,304,0.7,2.3,92,0.01,,,0.00,0,0,n/a,2026-09-05T04:04:59Z
2026-09-05 00:09:56,71.6,69.2,29.98,WNW,299,0.3,2.3,92,0.01,,,0.00,0,0,n/a,2026-09-05T04:09:56Z
2026-09-05 00:14:58,71.6,69.2,29.98,WNW,292,0.2,1.2,92,0.01,,,0.00,0,0,n/a,2026-09-05T04:14:58Z
2026-09-05 00:19:57,71.6,69.3,29.97,NW,323,0.8,2.3,92.4,0.01,,,0.00,0,0,n/a,2026-09-05T04:19:57Z
2026-09-05 00:24:58,71.6,69.4,29.97,NNW,336,0.1,2.3,92.8,0.01,,,0.00,0,0,n/a,2026-09-05T04:24:58Z
2026-09-05 00:29:59,71.6,69.4,29.97,NW,324,0.6,2.3,92.7,0.01,,,0.00,0,0,n/a,2026-09-05T04:29:59Z
2026-09-05 00:34:56,71.6,69.5,29.97,NNW,345,0.3,2.3,93,0.01,,,0.00,0,0,n/a,2026-09-05T04:34:56Z
2026-09-05 00:39:56,71.6,69.5,29.97,North,350,0.3,1.2,93,0.00,,,0.00,0,0,n/a,2026-09-05T04:39:56Z
2026-09-05 00:44:57,71.5,69.4,29.97,North,350,0.6,1.2,93,0.00,,,0.00,0,0,n/a,2026-09-05T04:44:57Z
2026-09-05 00:49:58,71.5,69.4,29.97,North,350,0,1.2,93,0.00,,,0.00,0,0,n/a,2026-09-05T04:49:58Z
2026-09-05 00:54:58,71.5,69.4,29.97,North,350,0,1.2,93,0.00,,,0.00,0,0,n/a,2026-09-05T04:54:58Z
2026-09-05 00:59:56,71.5,69.4,29.97,SE,140,0.7,2.3,93,0.00,,,0.00,0,0,n/a,2026-09-05T04:59:56Z
2026-09-05 01:04:58,71.4,69.3,29.96,SSE,150,0.6,1.2,93,0.00,,,0.00,0,0,n/a,2026-09-05T05:04:58Z
2026-09-05 01:09:59,71.4,69.3,29.96,WSW,249,0.4,1.2,93,0.00,,,0.00,0,0,n/a,2026-09-05T05:09:59Z
2026-09-05 01:14:57,71.5,69.4,29.96,West,268,0,0,93,0.00,,,0.00,0,0,n/a,2026-09-05T05:14:57Z
2026-09-05 01:19:59,71.5,69.4,29.95,West,268,0,0,93,0.00,,,0.00,0,0,n/a,2026-09-05T05:19:59Z
2026-09-05 01:24:59,71.5,69.4,29.95,South,185,0.4,2.3,93,0.00,,,0.00,0,0,n/a,2026-09-05T05:24:59Z
2026-09-05 01:29:59,71.5,69.4,29.96,ENE,76,1.5,2.3,93,0.00,,,0.00,0,0,n/a,2026-09-05T05:29:59Z
2026-09-05 01:34:57,71.5,69.5,29.96,ENE,68,1.5,3.5,93.1,0.00,,,0.00,0,0,n/a,2026-09-05T05:34:57Z
2026-09-05 01:39:56,71.5,69.6,29.96,ESE,105,0.1,1.2,93.5,0.00,,,0.00,0,0,n/a,2026-09-05T05:39:56Z
2026-09-05 01:44:57,71.5,69.5,29.96,ESE,117,0.7,1.2,93.4,0.00,,,0.00,0,0,n/a,2026-09-05T05:44:57Z
2026-09-05 01:49:58,71.6,69.8,29.95,ESE,117,0.3,2.3,94,0.00,,,0.00,0,0,n/a,2026-09-05T05:49:58Z
2026-09-05 01:54:57,71.6,69.8,29.95,ESE,117,0.1,1.2,94,0.00,,,0.00,0,0,n/a,2026-09-05T05:54:57Z
2026-09-05 01:59:58,71.6,69.8,29.95,ESE,117,0,0,94,0.00,,,0.00,0,0,n/a,2026-09-05T05:59:58Z
2026-09-05 02:04:59,71.5,69.7,29.95,ESE,117,0,0,94,0.00,,,0.00,0,0,n/a,2026-09-05T06:04:59Z
2026-09-05 02:09:59,71.5,69.7,29.95,ESE,117,0.2,2.3,94,0.00,,,0.00,0,0,n/a,2026-09-05T06:09:59Z
2026-09-05 02:14:59,71.4,69.6,29.95,SSW,193,1.5,2.3,93.7,0.00,,,0.00,0,0,n/a,2026-09-05T06:14:59Z
2026-09-05 02:19:57,71.4,69.6,29.94,SSW,200,1.2,2.3,94,0.00,,,0.00,0,0,n/a,2026-09-05T06:19:57Z
2026-09-05 02:24:58,71.4,69.6,29.94,SW,217,0.8,2.3,94,0.00,,,0.00,0,0,n/a,2026-09-05T06:24:58Z
2026-09-05 02:29:57,71.4,69.6,29.94,WSW,250,0.6,1.2,94,0.00,,,0.00,0,0,n/a,2026-09-05T06:29:57Z
2026-09-05 02:34:58,71.4,69.6,29.92,WSW,254,0.4,2.3,94,0.00,,,0.00,0,0,n/a,2026-09-05T06:34:58Z
2026-09-05 02:39:58,71.4,69.5,29.92,WSW,254,0.2,1.2,93.5,0.00,,,0.00,0,0,n/a,2026-09-05T06:39:58Z
2026-09-05 02:44:59,71.4,69.3,29.92,WSW,254,0,1.2,93.2,0.00,,,0.00,0,0,n/a,2026-09-05T06:44:59Z
2026-09-05 02:49:57,71.3,69.2,29.92,WSW,254,0,0,93,0.00,,,0.00,0,0,n/a,2026-09-05T06:49:57Z
2026-09-05 02:54:56,71.3,69.3,29.92,WSW,254,0,0,93.3,0.00,,,0.00,0,0,n/a,2026-09-05T06:54:56Z
2026-09-05 02:59:59,71.3,69.5,29.92,WSW,254,0.1,2.3,94,0.00,,,0.00,0,0,n/a,2026-09-05T06:59:59Z
2026-09-05 03:04:57,71.3,69.5,29.92,WSW,254,0,1.2,94,0.00,,,0.00,0,0,n/a,2026-09-05T07:04:57Z
2026-09-05 03:09:58,71.3,69.5,29.92,WSW,254,0.1,2.3,94,0.00,,,0.00,0,0,n/a,2026-09-05T07:09:58Z
2026-09-05 03:14:58,71.3,69.5,29.92,WSW,254,0,2.3,94,0.00,,,0.00,0,0,n/a,2026-09-05T07:14:58Z
2026-09-05 03:19:59,71.3,69.5,29.91,WSW,254,0,1.2,94,0.00,,,0.00,0,0,n/a,2026-09-05T07:19:59Z
2026-09-05 03:24:56,71.2,69.4,29.91,WSW,254,0,2.3,94,0.00,,,0.00,0,0,n/a,2026-09-05T07:24:56Z
2026-09-05 03:29:59,71.2,69.4,29.91,WSW,254,0.5,2.3,94,0.00,,,0.00,0,0,n/a,2026-09-05T07:29:59Z
2026-09-05 03:34:59,71.2,69.4,29.90,WSW,254,1,2.3,94,0.00,,,0.00,0,0,n/a,2026-09-05T07:34:59Z
2026-09-05 03:39:59,71.1,69.3,29.90,WSW,254,0,2.3,94,0.00,,,0.00,0,0,n/a,2026-09-05T07:39:59Z
2026-09-05 03:44:57,71.1,69.3,29.90,WSW,254,0,0,94,0.00,,,0.00,0,0,n/a,2026-09-05T07:44:57Z
2026-09-05 03:49:58,71.1,69.3,29.90,WSW,254,0.3,2.3,94,0.00,,,0.00,0,0,n/a,2026-09-05T07:49:58Z
2026-09-05 03:54:59,71.1,69.3,29.90,WSW,254,0.3,1.2,94,0.00,,,0.00,0,0,n/a,2026-09-05T07:54:59Z
2026-09-05 03:59:57,71.1,69.3,29.90,WSW,254,0.1,1.2,94,0.00,,,0.00,0,0,n/a,2026-09-05T07:59:57Z
2026-09-05 04:04:59,71.1,69.3,29.90,WSW,254,0,0,94,0.00,,,0.00,0,0,n/a,2026-09-05T08:04:59Z
2026-09-05 04:09:56,71.1,69.3,29.90,WSW,254,0,0,94,0.00,,,0.00,0,0,n/a,2026-09-05T08:09:56Z
2026-09-05 04:14:58,71,69.2,29.90,WSW,254,0,0,94,0.00,,,0.00,0,0,n/a,2026-09-05T08:14:58Z
2026-09-05 04:19:58,71,69.2,29.89,WSW,254,0,0,94,0.00,,,0.00,0,0,n/a,2026-09-05T08:19:58Z
2026-09-05 04:24:57,70.9,69.1,29.89,WSW,254,0,0,94,0.00,,,0.00,0,0,n/a,2026-09-05T08:24:57Z
2026-09-05 04:29:56,70.9,69.1,29.89,WSW,254,0,0,94,0.00,,,0.00,0,0,n/a,2026-09-05T08:29:56Z
2026-09-05 04:34:57,70.8,69,29.89,WSW,254,0,0,94,0.00,,,0.00,0,0,n/a,2026-09-05T08:34:57Z
2026-09-05 04:39:58,70.8,69,29.89,WSW,254,0,1.2,94,0.00,,,0.00,0,0,n/a,2026-09-05T08:39:58Z
2026-09-05 04:44:58,70.9,69.1,29.89,WSW,254,0.3,2.3,94,0.00,,,0.00,0,0,n/a,2026-09-05T08:44:58Z
2026-09-05 04:49:56,71,69.2,29.88,WSW,254,0.1,2.3,94,0.00,,,0.00,0,0,n/a,2026-09-05T08:49:56Z
2026-09-05 04:54:58,71.1,69.3,29.88,WSW,254,0.4,2.3,94,0.00,,,0.00,0,0,n/a,2026-09-05T08:54:58Z
2026-09-05 04:59:56,71.1,69.3,29.88,WSW,254,0,0,94,0.00,,,0.00,0,0,n/a,2026-09-05T08:59:56Z
2026-09-05 05:04:59,71.1,69.3,29.88,WSW,254,0,0,94,0.00,,,0.00,0,0,n/a,2026-09-05T09:04:59Z
2026-09-05 05:09:56,71.1,69.3,29.88,WSW,254,0,0,94,0.00,,,0.00,0,0,n/a,2026-09-05T09:09:56Z
2026-09-05 05:14:56,71,69.2,29.88,WSW,254,0,0,94,0.00,,,0.00,0,0,n/a,2026-09-05T09:14:56Z
2026-09-05 05:19:59,70.9,69.1,29.88,WSW,254,0,0,94,0.00,,,0.00,0,0,n/a,2026-09-05T09:19:59Z
2026-09-05 05:24:56,70.9,69.1,29.88,WSW,254,0,0,94,0.00,,,0.00,0,0,n/a,2026-09-05T09:24:56Z
2026-09-05 05:29:58,70.8,69,29.88,WSW,254,0,0,94,0.00,,,0.00,0,0,n/a,2026-09-05T09:29:58Z
2026-09-05 05:34:56,70.8,69,29.88,WSW,254,0,1.2,94,0.00,,,0.00,0,0,n/a,2026-09-05T09:34:56Z
2026-09-05 05:39:57,70.7,68.9,29.88,WSW,254,0.1,2.3,94,0.00,,,0.00,0,0,n/a,2026-09-05T09:39:57Z
2026-09-05 05:44:56,70.6,68.8,29.88,WSW,254,0,0,94,0.00,,,0.00,0,0,n/a,2026-09-05T09:44:56Z
2026-09-05 05:49:59,70.6,68.8,29.87,WSW,254,0,0,94,0.00,,,0.00,0,0,n/a,2026-09-05T09:49:59Z
2026-09-05 05:54:57,70.5,68.7,29.87,WSW,254,0,0,94,0.00,,,0.00,0,0,n/a,2026-09-05T09:54:57Z
2026-09-05 05:59:58,70.5,68.7,29.88,WSW,254,0.1,2.3,94,0.00,,,0.00,0,0,n/a,2026-09-05T09:59:58Z
2026-09-05 06:04:56,70.5,68.7,29.88,WSW,254,0,2.3,94,0.00,,,0.00,0,0,n/a,2026-09-05T10:04:56Z
2026-09-05 06:09:58,70.6,68.8,29.88,WSW,254,0,0,94,0.00,,,0.00,0,0,n/a,2026-09-05T10:09:58Z
2026-09-05 06:14:57,70.5,68.7,29.88,WSW,254,0,2.3,94,0.00,,,0.00,0,0,n/a,2026-09-05T10:14:57Z
2026-09-05 06:19:59,70.4,68.6,29.88,WSW,254,0.1,1.2,94,0.00,,,0.00,0,0,n/a,2026-09-05T10:19:59Z
2026-09-05 06:24:58,70.4,68.6,29.88,WSW,254,0.4,1.2,94,0.00,,,0.00,0,0,n/a,2026-09-05T10:24:58Z
2026-09-05 06:29:57,70.5,68.7,29.88,WSW,254,0.1,2.3,94,0.00,,,0.00,0,0,n/a,2026-09-05T10:29:57Z
2026-09-05 06:34:56,70.6,68.8,29.88,WSW,254,0.1,2.3,94,0.00,,,0.00,0,0,n/a,2026-09-05T10:34:56Z
2026-09-05 06:39:57,70.5,68.7,29.88,WSW,254,0,1.2,94,0.00,,,0.00,0,0,n/a,2026-09-05T10:39:57Z
2026-09-05 06:44:59,70.4,68.6,29.88,WSW,254,0.3,2.3,94,0.00,,,0.00,0,0,n/a,2026-09-05T10:44:59Z
2026-09-05 06:49:59,70.3,68.5,29.88,WSW,254,0.2,2.3,94,0.00,,,0.00,0,0,n/a,2026-09-05T10:49:59Z
2026-09-05 06:54:56,70.3,68.5,29.88,WSW,254,0.1,1.2,94,0.00,,,0.00,5,0,n/a,2026-09-05T10:54:56Z